sensor_id;sensor_type;location;lat;lon;timestamp;P1;durP1;ratioP1;P2;durP2;ratioP2
57401;SDS011;43226;51.110;6.998;2023-04-24T00:02:16;0.80;;;0.70;;
57401;SDS011;43226;51.110;6.998;2023-04-24T00:04:41;0.70;;;0.70;;
57401;SDS011;43226;51.110;6.998;2023-04-24T00:07:09;0.87;;;0.87;;
57401;SDS011;43226;51.110;6.998;2023-04-24T00:09:34;0.80;;;0.80;;
57401;SDS011;43226;51.110;6.998;2023-04-24T00:11:59;1.20;;;1.10;;
57401;SDS011;43226;51.110;6.998;2023-04-24T00:14:25;0.93;;;0.90;;
57401;SDS011;43226;51.110;6.998;2023-04-24T00:16:50;1.07;;;0.97;;
57401;SDS011;43226;51.110;6.998;2023-04-24T00:19:15;0.80;;;0.80;;
57401;SDS011;43226;51.110;6.998;2023-04-24T00:21:41;0.83;;;0.83;;
57401;SDS011;43226;51.110;6.998;2023-04-24T00:24:06;1.70;;;0.90;;
57401;SDS011;43226;51.110;6.998;2023-04-24T00:26:33;1.00;;;0.90;;
57401;SDS011;43226;51.110;6.998;2023-04-24T00:28:59;0.70;;;0.70;;
57401;SDS011;43226;51.110;6.998;2023-04-24T00:31:24;0.80;;;0.80;;
57401;SDS011;43226;51.110;6.998;2023-04-24T00:33:49;0.83;;;0.83;;
57401;SDS011;43226;51.110;6.998;2023-04-24T00:36:14;0.80;;;0.80;;
57401;SDS011;43226;51.110;6.998;2023-04-24T00:38:39;1.10;;;1.00;;
57401;SDS011;43226;51.110;6.998;2023-04-24T00:41:05;1.00;;;1.00;;
57401;SDS011;43226;51.110;6.998;2023-04-24T00:43:30;1.33;;;1.00;;
57401;SDS011;43226;51.110;6.998;2023-04-24T00:45:56;0.67;;;0.67;;
57401;SDS011;43226;51.110;6.998;2023-04-24T00:48:22;0.90;;;0.90;;
57401;SDS011;43226;51.110;6.998;2023-04-24T00:50:48;0.90;;;0.90;;
57401;SDS011;43226;51.110;6.998;2023-04-24T00:53:13;0.80;;;0.80;;
57401;SDS011;43226;51.110;6.998;2023-04-24T00:55:38;3.47;;;1.07;;
57401;SDS011;43226;51.110;6.998;2023-04-24T00:58:04;1.17;;;1.10;;
57401;SDS011;43226;51.110;6.998;2023-04-24T01:00:29;1.43;;;0.97;;
57401;SDS011;43226;51.110;6.998;2023-04-24T01:02:55;1.27;;;0.80;;
57401;SDS011;43226;51.110;6.998;2023-04-24T01:05:20;1.07;;;0.97;;
57401;SDS011;43226;51.110;6.998;2023-04-24T01:07:46;0.80;;;0.80;;
57401;SDS011;43226;51.110;6.998;2023-04-24T01:10:14;1.10;;;1.00;;
57401;SDS011;43226;51.110;6.998;2023-04-24T01:12:39;0.97;;;0.97;;
57401;SDS011;43226;51.110;6.998;2023-04-24T01:15:05;1.43;;;1.33;;
57401;SDS011;43226;51.110;6.998;2023-04-24T01:17:31;1.10;;;1.10;;
57401;SDS011;43226;51.110;6.998;2023-04-24T01:19:57;1.67;;;1.07;;
57401;SDS011;43226;51.110;6.998;2023-04-24T01:22:22;1.10;;;1.00;;
57401;SDS011;43226;51.110;6.998;2023-04-24T01:24:48;1.07;;;1.00;;
57401;SDS011;43226;51.110;6.998;2023-04-24T01:27:13;1.20;;;1.10;;
57401;SDS011;43226;51.110;6.998;2023-04-24T01:29:38;1.57;;;0.90;;
57401;SDS011;43226;51.110;6.998;2023-04-24T01:32:04;1.10;;;1.00;;
57401;SDS011;43226;51.110;6.998;2023-04-24T01:34:29;1.53;;;1.43;;
57401;SDS011;43226;51.110;6.998;2023-04-24T01:36:54;1.40;;;1.30;;
57401;SDS011;43226;51.110;6.998;2023-04-24T01:39:21;5.43;;;2.20;;
57401;SDS011;43226;51.110;6.998;2023-04-24T01:41:48;3.83;;;1.93;;
57401;SDS011;43226;51.110;6.998;2023-04-24T01:44:14;5.87;;;1.40;;
57401;SDS011;43226;51.110;6.998;2023-04-24T01:46:40;3.43;;;1.53;;
57401;SDS011;43226;51.110;6.998;2023-04-24T01:49:06;1.63;;;1.40;;
57401;SDS011;43226;51.110;6.998;2023-04-24T01:51:31;2.07;;;1.97;;
57401;SDS011;43226;51.110;6.998;2023-04-24T01:53:56;3.07;;;2.20;;
57401;SDS011;43226;51.110;6.998;2023-04-24T01:56:21;2.17;;;2.00;;
57401;SDS011;43226;51.110;6.998;2023-04-24T01:58:47;3.07;;;2.10;;
57401;SDS011;43226;51.110;6.998;2023-04-24T02:01:19;2.20;;;1.63;;
57401;SDS011;43226;51.110;6.998;2023-04-24T02:03:45;2.97;;;2.40;;
57401;SDS011;43226;51.110;6.998;2023-04-24T02:06:10;3.73;;;2.50;;
57401;SDS011;43226;51.110;6.998;2023-04-24T02:08:35;2.13;;;2.00;;
57401;SDS011;43226;51.110;6.998;2023-04-24T02:11:00;2.30;;;1.90;;
57401;SDS011;43226;51.110;6.998;2023-04-24T02:13:26;3.43;;;2.43;;
57401;SDS011;43226;51.110;6.998;2023-04-24T02:15:52;2.57;;;1.70;;
57401;SDS011;43226;51.110;6.998;2023-04-24T02:18:17;3.37;;;2.80;;
57401;SDS011;43226;51.110;6.998;2023-04-24T02:20:42;3.53;;;2.53;;
57401;SDS011;43226;51.110;6.998;2023-04-24T02:23:07;3.03;;;2.73;;
57401;SDS011;43226;51.110;6.998;2023-04-24T02:25:33;3.77;;;2.47;;
57401;SDS011;43226;51.110;6.998;2023-04-24T02:27:58;3.07;;;2.40;;
57401;SDS011;43226;51.110;6.998;2023-04-24T02:30:23;3.17;;;2.73;;
57401;SDS011;43226;51.110;6.998;2023-04-24T02:32:48;4.23;;;2.80;;
57401;SDS011;43226;51.110;6.998;2023-04-24T02:35:14;3.47;;;2.80;;
57401;SDS011;43226;51.110;6.998;2023-04-24T02:37:39;4.40;;;3.03;;
57401;SDS011;43226;51.110;6.998;2023-04-24T02:40:05;7.27;;;3.10;;
57401;SDS011;43226;51.110;6.998;2023-04-24T02:42:30;4.60;;;3.20;;
57401;SDS011;43226;51.110;6.998;2023-04-24T02:44:56;4.10;;;2.80;;
57401;SDS011;43226;51.110;6.998;2023-04-24T02:47:21;3.90;;;3.47;;
57401;SDS011;43226;51.110;6.998;2023-04-24T02:49:46;4.90;;;3.97;;
57401;SDS011;43226;51.110;6.998;2023-04-24T02:52:11;5.80;;;3.90;;
57401;SDS011;43226;51.110;6.998;2023-04-24T02:54:36;9.03;;;3.87;;
57401;SDS011;43226;51.110;6.998;2023-04-24T02:57:01;6.43;;;3.43;;
57401;SDS011;43226;51.110;6.998;2023-04-24T02:59:27;9.40;;;4.10;;
57401;SDS011;43226;51.110;6.998;2023-04-24T03:01:54;5.23;;;3.50;;
57401;SDS011;43226;51.110;6.998;2023-04-24T03:04:19;4.93;;;3.00;;
57401;SDS011;43226;51.110;6.998;2023-04-24T03:06:45;3.63;;;2.97;;
57401;SDS011;43226;51.110;6.998;2023-04-24T03:09:10;4.83;;;3.63;;
57401;SDS011;43226;51.110;6.998;2023-04-24T03:11:36;4.97;;;3.87;;
57401;SDS011;43226;51.110;6.998;2023-04-24T03:14:01;6.70;;;3.73;;
57401;SDS011;43226;51.110;6.998;2023-04-24T03:16:26;8.20;;;3.63;;
57401;SDS011;43226;51.110;6.998;2023-04-24T03:18:51;7.40;;;3.60;;
57401;SDS011;43226;51.110;6.998;2023-04-24T03:21:17;4.87;;;3.80;;
57401;SDS011;43226;51.110;6.998;2023-04-24T03:23:42;5.40;;;3.07;;
57401;SDS011;43226;51.110;6.998;2023-04-24T03:26:07;3.83;;;3.30;;
57401;SDS011;43226;51.110;6.998;2023-04-24T03:28:32;5.73;;;3.37;;
57401;SDS011;43226;51.110;6.998;2023-04-24T03:30:57;6.37;;;3.60;;
57401;SDS011;43226;51.110;6.998;2023-04-24T03:33:22;6.20;;;3.93;;
57401;SDS011;43226;51.110;6.998;2023-04-24T03:35:48;5.10;;;3.53;;
57401;SDS011;43226;51.110;6.998;2023-04-24T03:38:13;5.23;;;3.57;;
57401;SDS011;43226;51.110;6.998;2023-04-24T03:40:38;6.83;;;4.43;;
57401;SDS011;43226;51.110;6.998;2023-04-24T03:43:03;4.47;;;3.33;;
57401;SDS011;43226;51.110;6.998;2023-04-24T03:45:28;6.50;;;4.40;;
57401;SDS011;43226;51.110;6.998;2023-04-24T03:47:53;6.10;;;4.30;;
57401;SDS011;43226;51.110;6.998;2023-04-24T03:50:19;6.90;;;4.30;;
57401;SDS011;43226;51.110;6.998;2023-04-24T03:52:44;5.60;;;4.20;;
57401;SDS011;43226;51.110;6.998;2023-04-24T03:55:09;4.70;;;4.17;;
57401;SDS011;43226;51.110;6.998;2023-04-24T03:57:37;4.17;;;3.23;;
57401;SDS011;43226;51.110;6.998;2023-04-24T04:00:03;4.40;;;3.83;;
57401;SDS011;43226;51.110;6.998;2023-04-24T04:02:29;5.00;;;3.73;;
57401;SDS011;43226;51.110;6.998;2023-04-24T04:04:54;7.70;;;3.97;;
57401;SDS011;43226;51.110;6.998;2023-04-24T04:07:20;12.70;;;4.20;;
57401;SDS011;43226;51.110;6.998;2023-04-24T04:09:45;5.80;;;4.10;;
57401;SDS011;43226;51.110;6.998;2023-04-24T04:12:10;7.90;;;4.27;;
57401;SDS011;43226;51.110;6.998;2023-04-24T04:14:35;5.13;;;4.47;;
57401;SDS011;43226;51.110;6.998;2023-04-24T04:17:01;8.53;;;3.67;;
57401;SDS011;43226;51.110;6.998;2023-04-24T04:19:26;9.13;;;4.50;;
57401;SDS011;43226;51.110;6.998;2023-04-24T04:21:51;5.80;;;3.70;;
57401;SDS011;43226;51.110;6.998;2023-04-24T04:24:18;5.50;;;4.60;;
57401;SDS011;43226;51.110;6.998;2023-04-24T04:26:43;5.30;;;4.10;;
57401;SDS011;43226;51.110;6.998;2023-04-24T04:29:11;5.63;;;4.00;;
57401;SDS011;43226;51.110;6.998;2023-04-24T04:31:37;8.57;;;4.57;;
57401;SDS011;43226;51.110;6.998;2023-04-24T04:34:02;8.23;;;4.83;;
57401;SDS011;43226;51.110;6.998;2023-04-24T04:36:27;7.80;;;3.33;;
57401;SDS011;43226;51.110;6.998;2023-04-24T04:38:54;4.13;;;3.17;;
57401;SDS011;43226;51.110;6.998;2023-04-24T04:41:19;3.80;;;3.23;;
57401;SDS011;43226;51.110;6.998;2023-04-24T04:43:45;6.27;;;4.30;;
57401;SDS011;43226;51.110;6.998;2023-04-24T04:46:11;6.73;;;4.57;;
57401;SDS011;43226;51.110;6.998;2023-04-24T04:48:36;8.10;;;4.80;;
57401;SDS011;43226;51.110;6.998;2023-04-24T04:51:03;5.50;;;3.80;;
57401;SDS011;43226;51.110;6.998;2023-04-24T04:53:28;5.23;;;4.17;;
57401;SDS011;43226;51.110;6.998;2023-04-24T04:55:53;14.53;;;4.20;;
57401;SDS011;43226;51.110;6.998;2023-04-24T04:58:19;4.97;;;3.30;;
57401;SDS011;43226;51.110;6.998;2023-04-24T05:00:44;5.77;;;3.33;;
57401;SDS011;43226;51.110;6.998;2023-04-24T05:03:09;7.30;;;4.27;;
57401;SDS011;43226;51.110;6.998;2023-04-24T05:05:34;7.53;;;3.90;;
57401;SDS011;43226;51.110;6.998;2023-04-24T05:08:00;6.83;;;3.80;;
57401;SDS011;43226;51.110;6.998;2023-04-24T05:10:25;8.23;;;3.17;;
57401;SDS011;43226;51.110;6.998;2023-04-24T05:12:50;6.23;;;2.83;;
57401;SDS011;43226;51.110;6.998;2023-04-24T05:15:15;5.13;;;3.27;;
57401;SDS011;43226;51.110;6.998;2023-04-24T05:17:41;3.57;;;3.10;;
57401;SDS011;43226;51.110;6.998;2023-04-24T05:20:06;12.23;;;3.60;;
57401;SDS011;43226;51.110;6.998;2023-04-24T05:22:31;4.17;;;3.30;;
57401;SDS011;43226;51.110;6.998;2023-04-24T05:24:57;4.47;;;3.00;;
57401;SDS011;43226;51.110;6.998;2023-04-24T05:27:22;7.87;;;4.13;;
57401;SDS011;43226;51.110;6.998;2023-04-24T05:29:47;3.37;;;2.67;;
57401;SDS011;43226;51.110;6.998;2023-04-24T05:32:13;4.33;;;3.30;;
57401;SDS011;43226;51.110;6.998;2023-04-24T05:34:38;3.87;;;2.77;;
57401;SDS011;43226;51.110;6.998;2023-04-24T05:37:03;3.40;;;3.07;;
57401;SDS011;43226;51.110;6.998;2023-04-24T05:39:32;4.63;;;3.40;;
57401;SDS011;43226;51.110;6.998;2023-04-24T05:41:58;5.80;;;3.80;;
57401;SDS011;43226;51.110;6.998;2023-04-24T05:44:23;6.60;;;3.30;;
57401;SDS011;43226;51.110;6.998;2023-04-24T05:46:48;3.53;;;2.93;;
57401;SDS011;43226;51.110;6.998;2023-04-24T05:49:14;4.00;;;3.23;;
57401;SDS011;43226;51.110;6.998;2023-04-24T05:51:39;3.80;;;3.13;;
57401;SDS011;43226;51.110;6.998;2023-04-24T05:54:04;5.17;;;3.23;;
57401;SDS011;43226;51.110;6.998;2023-04-24T05:56:30;3.67;;;3.30;;
57401;SDS011;43226;51.110;6.998;2023-04-24T05:58:55;4.40;;;3.30;;
57401;SDS011;43226;51.110;6.998;2023-04-24T06:01:20;7.40;;;3.50;;
57401;SDS011;43226;51.110;6.998;2023-04-24T06:03:46;4.40;;;3.23;;
57401;SDS011;43226;51.110;6.998;2023-04-24T06:06:11;5.90;;;3.60;;
57401;SDS011;43226;51.110;6.998;2023-04-24T06:08:36;3.50;;;3.03;;
57401;SDS011;43226;51.110;6.998;2023-04-24T06:11:01;4.30;;;3.60;;
57401;SDS011;43226;51.110;6.998;2023-04-24T06:13:26;4.13;;;3.20;;
57401;SDS011;43226;51.110;6.998;2023-04-24T06:15:52;4.37;;;3.50;;
57401;SDS011;43226;51.110;6.998;2023-04-24T06:18:17;8.00;;;3.63;;
57401;SDS011;43226;51.110;6.998;2023-04-24T06:20:42;6.63;;;3.27;;
57401;SDS011;43226;51.110;6.998;2023-04-24T06:23:07;2.33;;;2.13;;
57401;SDS011;43226;51.110;6.998;2023-04-24T06:25:33;3.50;;;2.50;;
57401;SDS011;43226;51.110;6.998;2023-04-24T06:27:58;3.80;;;2.40;;
57401;SDS011;43226;51.110;6.998;2023-04-24T06:30:23;2.27;;;2.07;;
57401;SDS011;43226;51.110;6.998;2023-04-24T06:32:48;5.53;;;2.50;;
57401;SDS011;43226;51.110;6.998;2023-04-24T06:35:13;2.57;;;2.37;;
57401;SDS011;43226;51.110;6.998;2023-04-24T06:37:41;3.03;;;2.03;;
57401;SDS011;43226;51.110;6.998;2023-04-24T06:40:06;2.33;;;2.13;;
57401;SDS011;43226;51.110;6.998;2023-04-24T06:42:31;1.93;;;1.83;;
57401;SDS011;43226;51.110;6.998;2023-04-24T06:44:56;2.43;;;2.23;;
57401;SDS011;43226;51.110;6.998;2023-04-24T06:47:22;1.63;;;1.53;;
57401;SDS011;43226;51.110;6.998;2023-04-24T06:49:47;2.43;;;2.20;;
57401;SDS011;43226;51.110;6.998;2023-04-24T06:52:12;1.77;;;1.67;;
57401;SDS011;43226;51.110;6.998;2023-04-24T06:54:38;1.83;;;1.73;;
57401;SDS011;43226;51.110;6.998;2023-04-24T06:57:03;2.00;;;1.80;;
57401;SDS011;43226;51.110;6.998;2023-04-24T06:59:28;2.07;;;1.90;;
57401;SDS011;43226;51.110;6.998;2023-04-24T07:01:54;2.93;;;1.83;;
57401;SDS011;43226;51.110;6.998;2023-04-24T07:04:19;1.90;;;1.80;;
57401;SDS011;43226;51.110;6.998;2023-04-24T07:06:47;2.00;;;1.57;;
57401;SDS011;43226;51.110;6.998;2023-04-24T07:09:14;2.13;;;1.93;;
57401;SDS011;43226;51.110;6.998;2023-04-24T07:11:39;1.73;;;1.63;;
57401;SDS011;43226;51.110;6.998;2023-04-24T07:14:05;3.37;;;1.60;;
57401;SDS011;43226;51.110;6.998;2023-04-24T07:16:31;2.53;;;1.80;;
57401;SDS011;43226;51.110;6.998;2023-04-24T07:18:56;1.57;;;1.47;;
57401;SDS011;43226;51.110;6.998;2023-04-24T07:21:21;5.83;;;1.80;;
57401;SDS011;43226;51.110;6.998;2023-04-24T07:23:46;2.60;;;1.63;;
57401;SDS011;43226;51.110;6.998;2023-04-24T07:26:12;2.17;;;1.53;;
57401;SDS011;43226;51.110;6.998;2023-04-24T07:28:37;1.80;;;1.57;;
57401;SDS011;43226;51.110;6.998;2023-04-24T07:31:02;3.13;;;1.70;;
57401;SDS011;43226;51.110;6.998;2023-04-24T07:33:27;1.33;;;1.27;;
57401;SDS011;43226;51.110;6.998;2023-04-24T07:35:52;1.40;;;1.30;;
57401;SDS011;43226;51.110;6.998;2023-04-24T07:38:18;1.30;;;1.20;;
57401;SDS011;43226;51.110;6.998;2023-04-24T07:40:47;1.53;;;1.43;;
57401;SDS011;43226;51.110;6.998;2023-04-24T07:43:12;1.37;;;1.10;;
57401;SDS011;43226;51.110;6.998;2023-04-24T07:45:37;1.20;;;1.10;;
57401;SDS011;43226;51.110;6.998;2023-04-24T07:48:04;1.20;;;1.10;;
57401;SDS011;43226;51.110;6.998;2023-04-24T07:50:29;1.30;;;1.20;;
57401;SDS011;43226;51.110;6.998;2023-04-24T07:52:54;2.00;;;1.10;;
57401;SDS011;43226;51.110;6.998;2023-04-24T07:55:20;1.20;;;1.10;;
57401;SDS011;43226;51.110;6.998;2023-04-24T07:57:45;2.07;;;0.90;;
57401;SDS011;43226;51.110;6.998;2023-04-24T08:00:10;0.80;;;0.80;;
57401;SDS011;43226;51.110;6.998;2023-04-24T08:02:35;1.30;;;1.20;;
57401;SDS011;43226;51.110;6.998;2023-04-24T08:05:01;0.73;;;0.73;;
57401;SDS011;43226;51.110;6.998;2023-04-24T08:07:27;1.00;;;1.00;;
57401;SDS011;43226;51.110;6.998;2023-04-24T08:09:53;0.70;;;0.60;;
57401;SDS011;43226;51.110;6.998;2023-04-24T08:12:18;0.60;;;0.60;;
57401;SDS011;43226;51.110;6.998;2023-04-24T08:14:43;0.90;;;0.70;;
57401;SDS011;43226;51.110;6.998;2023-04-24T08:17:08;0.97;;;0.73;;
57401;SDS011;43226;51.110;6.998;2023-04-24T08:19:33;0.60;;;0.60;;
57401;SDS011;43226;51.110;6.998;2023-04-24T08:21:58;0.63;;;0.63;;
57401;SDS011;43226;51.110;6.998;2023-04-24T08:24:24;0.80;;;0.80;;
57401;SDS011;43226;51.110;6.998;2023-04-24T08:26:49;2.00;;;1.10;;
57401;SDS011;43226;51.110;6.998;2023-04-24T08:29:16;1.70;;;1.60;;
57401;SDS011;43226;51.110;6.998;2023-04-24T08:31:41;1.57;;;0.90;;
57401;SDS011;43226;51.110;6.998;2023-04-24T08:34:06;2.60;;;1.30;;
57401;SDS011;43226;51.110;6.998;2023-04-24T08:36:31;1.60;;;1.30;;
57401;SDS011;43226;51.110;6.998;2023-04-24T08:38:57;1.60;;;1.47;;
57401;SDS011;43226;51.110;6.998;2023-04-24T08:41:22;2.43;;;1.60;;
57401;SDS011;43226;51.110;6.998;2023-04-24T08:43:50;2.07;;;1.83;;
57401;SDS011;43226;51.110;6.998;2023-04-24T08:46:16;2.67;;;2.00;;
57401;SDS011;43226;51.110;6.998;2023-04-24T08:48:41;1.60;;;1.50;;
57401;SDS011;43226;51.110;6.998;2023-04-24T08:51:07;2.03;;;1.83;;
57401;SDS011;43226;51.110;6.998;2023-04-24T08:53:32;3.77;;;2.70;;
57401;SDS011;43226;51.110;6.998;2023-04-24T08:55:58;2.43;;;1.90;;
57401;SDS011;43226;51.110;6.998;2023-04-24T08:58:26;3.67;;;3.37;;
57401;SDS011;43226;51.110;6.998;2023-04-24T09:00:53;3.93;;;3.13;;
57401;SDS011;43226;51.110;6.998;2023-04-24T09:03:19;2.50;;;1.40;;
57401;SDS011;43226;51.110;6.998;2023-04-24T09:05:46;2.37;;;2.10;;
57401;SDS011;43226;51.110;6.998;2023-04-24T09:08:11;3.10;;;2.13;;
57401;SDS011;43226;51.110;6.998;2023-04-24T09:10:38;1.70;;;1.60;;
57401;SDS011;43226;51.110;6.998;2023-04-24T09:13:04;2.30;;;2.00;;
57401;SDS011;43226;51.110;6.998;2023-04-24T09:15:29;1.90;;;1.80;;
57401;SDS011;43226;51.110;6.998;2023-04-24T09:17:55;2.40;;;2.20;;
57401;SDS011;43226;51.110;6.998;2023-04-24T09:20:20;2.47;;;2.27;;
57401;SDS011;43226;51.110;6.998;2023-04-24T09:22:45;3.13;;;2.30;;
57401;SDS011;43226;51.110;6.998;2023-04-24T09:25:10;2.53;;;2.13;;
57401;SDS011;43226;51.110;6.998;2023-04-24T09:27:41;3.10;;;2.20;;
57401;SDS011;43226;51.110;6.998;2023-04-24T09:30:06;8.10;;;3.20;;
57401;SDS011;43226;51.110;6.998;2023-04-24T09:32:32;3.10;;;2.80;;
57401;SDS011;43226;51.110;6.998;2023-04-24T09:35:07;2.93;;;2.60;;
57401;SDS011;43226;51.110;6.998;2023-04-24T09:37:41;3.97;;;2.87;;
57401;SDS011;43226;51.110;6.998;2023-04-24T09:40:13;4.73;;;3.23;;
57401;SDS011;43226;51.110;6.998;2023-04-24T09:42:39;2.90;;;2.70;;
57401;SDS011;43226;51.110;6.998;2023-04-24T09:45:08;3.20;;;2.67;;
57401;SDS011;43226;51.110;6.998;2023-04-24T09:47:37;6.30;;;4.33;;
57401;SDS011;43226;51.110;6.998;2023-04-24T09:52:39;6.40;;;3.80;;
57401;SDS011;43226;51.110;6.998;2023-04-24T09:55:10;3.63;;;2.57;;
57401;SDS011;43226;51.110;6.998;2023-04-24T09:57:35;3.87;;;2.37;;
57401;SDS011;43226;51.110;6.998;2023-04-24T10:00:00;3.43;;;2.30;;
57401;SDS011;43226;51.110;6.998;2023-04-24T10:02:25;3.77;;;2.43;;
57401;SDS011;43226;51.110;6.998;2023-04-24T10:04:57;9.40;;;2.90;;
57401;SDS011;43226;51.110;6.998;2023-04-24T10:07:25;2.93;;;2.27;;
57401;SDS011;43226;51.110;6.998;2023-04-24T10:09:50;3.83;;;2.80;;
57401;SDS011;43226;51.110;6.998;2023-04-24T10:12:16;4.27;;;2.93;;
57401;SDS011;43226;51.110;6.998;2023-04-24T10:14:41;3.53;;;2.70;;
57401;SDS011;43226;51.110;6.998;2023-04-24T10:17:06;4.63;;;2.60;;
57401;SDS011;43226;51.110;6.998;2023-04-24T10:19:32;5.27;;;3.87;;
57401;SDS011;43226;51.110;6.998;2023-04-24T10:21:58;4.63;;;3.40;;
57401;SDS011;43226;51.110;6.998;2023-04-24T10:24:23;6.07;;;3.40;;
57401;SDS011;43226;51.110;6.998;2023-04-24T10:26:48;5.00;;;3.40;;
57401;SDS011;43226;51.110;6.998;2023-04-24T10:29:14;4.23;;;3.30;;
57401;SDS011;43226;51.110;6.998;2023-04-24T10:31:40;5.07;;;3.43;;
57401;SDS011;43226;51.110;6.998;2023-04-24T10:34:05;4.80;;;3.50;;
57401;SDS011;43226;51.110;6.998;2023-04-24T10:36:31;3.17;;;2.77;;
57401;SDS011;43226;51.110;6.998;2023-04-24T10:38:57;3.90;;;2.97;;
57401;SDS011;43226;51.110;6.998;2023-04-24T10:41:25;7.93;;;3.43;;
57401;SDS011;43226;51.110;6.998;2023-04-24T10:44:06;7.77;;;4.47;;
57401;SDS011;43226;51.110;6.998;2023-04-24T10:46:32;5.47;;;2.87;;
57401;SDS011;43226;51.110;6.998;2023-04-24T10:48:57;10.80;;;2.97;;
57401;SDS011;43226;51.110;6.998;2023-04-24T10:51:23;3.63;;;2.90;;
57401;SDS011;43226;51.110;6.998;2023-04-24T10:53:52;4.67;;;3.00;;
57401;SDS011;43226;51.110;6.998;2023-04-24T10:56:17;4.53;;;2.80;;
57401;SDS011;43226;51.110;6.998;2023-04-24T10:58:43;2.37;;;2.17;;
57401;SDS011;43226;51.110;6.998;2023-04-24T11:01:28;4.30;;;3.50;;
57401;SDS011;43226;51.110;6.998;2023-04-24T11:03:55;4.03;;;2.50;;
57401;SDS011;43226;51.110;6.998;2023-04-24T11:06:31;6.13;;;2.53;;
57401;SDS011;43226;51.110;6.998;2023-04-24T11:09:03;16.33;;;4.50;;
57401;SDS011;43226;51.110;6.998;2023-04-24T11:11:30;4.07;;;3.50;;
57401;SDS011;43226;51.110;6.998;2023-04-24T11:18:51;6.73;;;2.93;;
57401;SDS011;43226;51.110;6.998;2023-04-24T11:21:19;10.80;;;2.87;;
57401;SDS011;43226;51.110;6.998;2023-04-24T11:23:44;3.00;;;1.93;;
57401;SDS011;43226;51.110;6.998;2023-04-24T11:26:16;5.03;;;2.90;;
57401;SDS011;43226;51.110;6.998;2023-04-24T11:28:48;5.07;;;2.87;;
57401;SDS011;43226;51.110;6.998;2023-04-24T11:33:57;7.07;;;2.60;;
57401;SDS011;43226;51.110;6.998;2023-04-24T11:36:31;6.53;;;3.10;;
57401;SDS011;43226;51.110;6.998;2023-04-24T11:38:56;5.70;;;2.07;;
57401;SDS011;43226;51.110;6.998;2023-04-24T11:41:21;13.27;;;4.80;;
57401;SDS011;43226;51.110;6.998;2023-04-24T11:43:46;17.70;;;6.73;;
57401;SDS011;43226;51.110;6.998;2023-04-24T11:46:16;6.10;;;3.43;;
57401;SDS011;43226;51.110;6.998;2023-04-24T11:48:44;6.83;;;4.40;;
57401;SDS011;43226;51.110;6.998;2023-04-24T11:51:09;7.33;;;3.40;;
57401;SDS011;43226;51.110;6.998;2023-04-24T11:53:36;13.20;;;6.93;;
57401;SDS011;43226;51.110;6.998;2023-04-24T11:56:02;5.70;;;2.83;;
57401;SDS011;43226;51.110;6.998;2023-04-24T11:58:27;11.10;;;4.40;;
57401;SDS011;43226;51.110;6.998;2023-04-24T12:00:56;8.03;;;3.40;;
57401;SDS011;43226;51.110;6.998;2023-04-24T12:03:23;3.93;;;2.37;;
57401;SDS011;43226;51.110;6.998;2023-04-24T12:05:48;4.30;;;2.53;;
57401;SDS011;43226;51.110;6.998;2023-04-24T12:08:26;3.13;;;2.10;;
57401;SDS011;43226;51.110;6.998;2023-04-24T12:10:51;5.70;;;3.40;;
57401;SDS011;43226;51.110;6.998;2023-04-24T12:13:17;5.10;;;2.63;;
57401;SDS011;43226;51.110;6.998;2023-04-24T12:15:42;5.90;;;3.07;;
57401;SDS011;43226;51.110;6.998;2023-04-24T12:18:07;4.30;;;3.43;;
57401;SDS011;43226;51.110;6.998;2023-04-24T12:20:36;3.60;;;2.63;;
57401;SDS011;43226;51.110;6.998;2023-04-24T12:23:01;7.80;;;4.57;;
57401;SDS011;43226;51.110;6.998;2023-04-24T12:25:27;7.63;;;4.40;;
57401;SDS011;43226;51.110;6.998;2023-04-24T12:28:14;3.50;;;2.90;;
57401;SDS011;43226;51.110;6.998;2023-04-24T12:30:43;3.33;;;2.33;;
57401;SDS011;43226;51.110;6.998;2023-04-24T12:33:09;3.90;;;2.00;;
57401;SDS011;43226;51.110;6.998;2023-04-24T12:35:35;3.37;;;2.63;;
57401;SDS011;43226;51.110;6.998;2023-04-24T12:38:07;7.60;;;3.00;;
57401;SDS011;43226;51.110;6.998;2023-04-24T12:40:33;6.50;;;2.30;;
57401;SDS011;43226;51.110;6.998;2023-04-24T12:42:58;6.43;;;2.50;;
57401;SDS011;43226;51.110;6.998;2023-04-24T12:45:23;4.17;;;2.20;;
57401;SDS011;43226;51.110;6.998;2023-04-24T12:47:50;5.17;;;1.80;;
57401;SDS011;43226;51.110;6.998;2023-04-24T12:50:15;4.20;;;2.30;;
57401;SDS011;43226;51.110;6.998;2023-04-24T12:52:41;2.83;;;1.77;;
57401;SDS011;43226;51.110;6.998;2023-04-24T12:55:06;2.60;;;1.93;;
57401;SDS011;43226;51.110;6.998;2023-04-24T12:57:35;2.33;;;1.73;;
57401;SDS011;43226;51.110;6.998;2023-04-24T13:00:01;3.60;;;2.10;;
57401;SDS011;43226;51.110;6.998;2023-04-24T13:02:28;5.20;;;2.37;;
57401;SDS011;43226;51.110;6.998;2023-04-24T13:04:57;5.00;;;1.67;;
57401;SDS011;43226;51.110;6.998;2023-04-24T13:07:22;2.97;;;1.80;;
57401;SDS011;43226;51.110;6.998;2023-04-24T13:09:48;1.63;;;1.40;;
57401;SDS011;43226;51.110;6.998;2023-04-24T13:12:14;1.47;;;1.37;;
57401;SDS011;43226;51.110;6.998;2023-04-24T13:14:39;1.77;;;1.67;;
57401;SDS011;43226;51.110;6.998;2023-04-24T13:17:04;3.20;;;1.47;;
57401;SDS011;43226;51.110;6.998;2023-04-24T13:19:34;2.30;;;1.10;;
57401;SDS011;43226;51.110;6.998;2023-04-24T13:22:00;2.10;;;1.60;;
57401;SDS011;43226;51.110;6.998;2023-04-24T13:24:25;1.90;;;1.60;;
57401;SDS011;43226;51.110;6.998;2023-04-24T13:26:51;1.53;;;1.33;;
57401;SDS011;43226;51.110;6.998;2023-04-24T13:29:16;4.80;;;1.30;;
57401;SDS011;43226;51.110;6.998;2023-04-24T13:31:41;1.60;;;1.50;;
57401;SDS011;43226;51.110;6.998;2023-04-24T13:34:07;2.33;;;1.73;;
57401;SDS011;43226;51.110;6.998;2023-04-24T13:36:32;4.70;;;1.30;;
57401;SDS011;43226;51.110;6.998;2023-04-24T13:38:57;2.80;;;1.70;;
57401;SDS011;43226;51.110;6.998;2023-04-24T13:41:22;2.07;;;1.50;;
57401;SDS011;43226;51.110;6.998;2023-04-24T13:43:47;2.47;;;1.50;;
57401;SDS011;43226;51.110;6.998;2023-04-24T13:46:13;2.77;;;1.50;;
57401;SDS011;43226;51.110;6.998;2023-04-24T13:48:38;2.07;;;1.80;;
57401;SDS011;43226;51.110;6.998;2023-04-24T13:51:03;5.53;;;2.13;;
57401;SDS011;43226;51.110;6.998;2023-04-24T13:53:28;3.27;;;2.20;;
57401;SDS011;43226;51.110;6.998;2023-04-24T13:55:53;2.08;;;1.80;;
57401;SDS011;43226;51.110;6.998;2023-04-24T13:58:18;15.97;;;7.87;;
57401;SDS011;43226;51.110;6.998;2023-04-24T14:00:44;3.37;;;1.90;;
57401;SDS011;43226;51.110;6.998;2023-04-24T14:03:09;10.87;;;5.67;;
57401;SDS011;43226;51.110;6.998;2023-04-24T14:05:35;7.20;;;2.57;;
57401;SDS011;43226;51.110;6.998;2023-04-24T14:08:01;2.10;;;1.90;;
57401;SDS011;43226;51.110;6.998;2023-04-24T14:10:26;3.30;;;1.83;;
57401;SDS011;43226;51.110;6.998;2023-04-24T14:12:52;2.80;;;1.50;;
57401;SDS011;43226;51.110;6.998;2023-04-24T14:15:18;3.23;;;1.60;;
57401;SDS011;43226;51.110;6.998;2023-04-24T14:17:43;4.20;;;1.60;;
57401;SDS011;43226;51.110;6.998;2023-04-24T14:20:08;3.63;;;2.00;;
57401;SDS011;43226;51.110;6.998;2023-04-24T14:22:33;4.30;;;2.00;;
57401;SDS011;43226;51.110;6.998;2023-04-24T14:24:59;2.37;;;1.50;;
57401;SDS011;43226;51.110;6.998;2023-04-24T14:27:24;5.00;;;1.50;;
57401;SDS011;43226;51.110;6.998;2023-04-24T14:29:50;2.33;;;1.60;;
57401;SDS011;43226;51.110;6.998;2023-04-24T14:32:15;2.47;;;1.77;;
57401;SDS011;43226;51.110;6.998;2023-04-24T14:34:40;3.33;;;1.87;;
57401;SDS011;43226;51.110;6.998;2023-04-24T14:37:06;1.83;;;1.50;;
57401;SDS011;43226;51.110;6.998;2023-04-24T14:39:31;2.00;;;1.80;;
57401;SDS011;43226;51.110;6.998;2023-04-24T14:41:57;1.60;;;1.47;;
57401;SDS011;43226;51.110;6.998;2023-04-24T14:44:22;5.07;;;1.80;;
57401;SDS011;43226;51.110;6.998;2023-04-24T14:46:48;2.30;;;1.83;;
57401;SDS011;43226;51.110;6.998;2023-04-24T14:49:13;3.33;;;1.97;;
57401;SDS011;43226;51.110;6.998;2023-04-24T14:51:38;3.30;;;1.57;;